Arthur, West Virginia
Current Conditions -  °F | °C
As of 7:55 PM on Monday 26 Jan 2015 (Local Time) from KW99 Reporting Station
Light Snow Light Snow  
Wind Chill: 29°   Ceiling: 3400
Heat Index: 29°   Visibility: 7mi
Dew Point: 28°   Wind: 0mph
Humidity: 94%   Direction: NA
Pressure: 29.79"   Gusts: NA
Location:  38.9337°N, 79.1435°W
Report Text: KW99 270055Z AUTO 00000KT 7SM -SN BKN034 OVC044 M02/M02 A2979 RMK AO2 T10171025
Loading
Personal Weather Stations






























Interactive Weather Map New forecast layout! Learn more

10-Day Weather Forecast

Advertisements
Track Severe Weather on mobile